首页
METAR-TAF:

METAR-TAF

机场 :

馬里伯爾愛德華·盧希揚機場

马里博尔, 斯洛文尼亚

纬度: 46-29N, 经度: 015-41E, 海拔: 264米

当前天气观测

该预报发布于34分钟前的23:00 UTC
风速7节,风向
温度 12°C
湿度 76%
气压 1017 hPa
能见度10公里或以上
小阵雨

METAR: LJMB 312300Z AUTO 36007KT 9999 -SHRA OVC035/// 12/08 Q1017

时间: 01:34 (23:34 UTC)

预报

该预报发布于6小时和34分钟前的17:00 UTC
预报有效从31日的 18点(UTC)到 01日的 18点(UTC)
风速5节,风向
能见度10公里或以上
1500米以下无云,无积雨云
短暂存在
从 31日的 18点(UTC)到 01日的 02点(UTC)
小雨
成为
从 01日的 06点(UTC)到 01日的 09点(UTC)
风速15节,风向北转东北,有时为25节阵风

TAF: LJMB 311700Z 3118/0118 36005KT CAVOK TEMPO 3118/0102 -RA BECMG 0106/0109 02015G25KT

超过4000个机场的气象观测和天气预报(METAR&TAF报告)。

可查询的气象台以黄色和红色小点在地图上表示。

将鼠标移到小点上方,可查看气象台名称。

然后点击查看天气观测和预报。

如需切换地图:点击带黑十字的绿色按钮放大地图;点击带横线的绿色按钮缩小地图;或者点击绿色箭头查看邻近地区的地图。


METAR-TAF: